Time;durP1;ratioP1;P1;durP2;ratioP2;P2;SDS_P1;SDS_P2;PMS_P1;PMS_P2;Temp;Humidity;BMP_temperature;BMP_pressure;BME280_temperature;BME280_humidity;BME280_pressure;Samples;Min_cycle;Max_cycle;Signal;HPM_P1;HPM_P2
2022/11/29 00:00:57;;;;;;;26.13;10.73;;;8.30;99.90;;;;;;5035128;28;20042;-67
2022/11/29 00:03:23;;;;;;;27.27;10.27;;;8.30;99.90;;;;;;5036432;28;20057;-67
2022/11/29 00:05:50;;;;;;;27.75;9.98;;;8.30;99.90;;;;;;5016539;28;20045;-68
2022/11/29 00:08:16;;;;;;;29.02;9.05;;;8.30;99.90;;;;;;5036904;28;20049;-68
2022/11/29 00:10:42;;;;;;;26.15;10.20;;;8.40;99.90;;;;;;5026539;28;20037;-68
2022/11/29 00:13:08;;;;;;;28.20;9.43;;;8.40;99.90;;;;;;5026005;28;20042;-68
2022/11/29 00:15:38;;;;;;;27.38;10.27;;;8.40;99.90;;;;;;4995078;28;20053;-68
2022/11/29 00:18:05;;;;;;;25.80;8.57;;;8.40;99.90;;;;;;5092109;28;20039;-67
2022/11/29 00:20:32;;;;;;;26.58;9.90;;;8.40;99.90;;;;;;5119534;28;20039;-67
2022/11/29 00:22:58;;;;;;;29.65;9.63;;;8.40;99.90;;;;;;5038331;28;20102;-68
2022/11/29 00:25:24;;;;;;;28.13;9.57;;;8.40;99.90;;;;;;5035074;28;20121;-68
2022/11/29 00:27:50;;;;;;;24.65;9.23;;;8.40;99.90;;;;;;5033041;28;20085;-67
2022/11/29 00:30:17;;;;;;;28.70;11.38;;;8.40;99.90;;;;;;5008926;28;20560;-68
2022/11/29 00:32:42;;;;;;;33.97;11.02;;;8.40;99.90;;;;;;5015739;28;20407;-68
2022/11/29 00:35:08;;;;;;;27.08;10.23;;;8.40;99.90;;;;;;5013342;28;20038;-67
2022/11/29 00:37:34;;;;;;;30.88;10.05;;;8.40;99.90;;;;;;5016418;28;20125;-67
2022/11/29 00:39:59;;;;;;;31.55;11.00;;;8.40;99.90;;;;;;5014623;28;20057;-68
2022/11/29 00:42:26;;;;;;;26.88;10.25;;;8.40;99.90;;;;;;5016410;28;20030;-68
2022/11/29 00:44:51;;;;;;;30.85;11.05;;;8.40;99.90;;;;;;5013285;28;20542;-68
2022/11/29 00:47:17;;;;;;;29.75;10.15;;;8.40;99.90;;;;;;5036468;28;20043;-68
2022/11/29 00:49:43;;;;;;;28.63;9.93;;;8.40;99.90;;;;;;5081827;28;20091;-68
2022/11/29 00:52:08;;;;;;;33.33;10.93;;;8.30;99.90;;;;;;5063033;28;20091;-69
2022/11/29 00:54:34;;;;;;;34.20;11.13;;;8.30;99.90;;;;;;5035308;28;20037;-69
2022/11/29 00:57:00;;;;;;;27.60;10.20;;;8.40;99.90;;;;;;5109008;28;20044;-69
2022/11/29 00:59:26;;;;;;;24.15;9.30;;;8.30;99.90;;;;;;5100403;28;20060;-68
2022/11/29 01:01:51;;;;;;;25.92;9.02;;;8.30;99.90;;;;;;5115571;28;20047;-68
2022/11/29 01:04:18;;;;;;;27.95;11.95;;;8.40;99.90;;;;;;5060897;28;20402;-69
2022/11/29 01:06:43;;;;;;;33.50;10.90;;;8.30;99.90;;;;;;5015251;28;20042;-68
2022/11/29 01:09:09;;;;;;;37.38;9.98;;;8.30;99.90;;;;;;5014726;28;20046;-69
2022/11/29 01:11:35;;;;;;;33.15;10.25;;;8.40;99.90;;;;;;5091463;28;20040;-69
2022/11/29 01:14:02;;;;;;;37.40;10.80;;;8.40;99.90;;;;;;5077341;28;20052;-69
2022/11/29 01:16:30;;;;;;;30.23;11.25;;;8.40;99.90;;;;;;5014878;28;20042;-69
2022/11/29 01:18:55;;;;;;;31.17;10.38;;;8.40;99.90;;;;;;5013792;28;20551;-69
2022/11/29 01:21:23;;;;;;;29.75;9.95;;;8.30;99.90;;;;;;5023321;28;20465;-69
2022/11/29 01:23:50;;;;;;;36.75;10.82;;;8.30;99.90;;;;;;5034887;28;20060;-69
2022/11/29 01:26:24;;;;;;;33.33;10.25;;;8.30;99.90;;;;;;5017009;28;20046;-69
2022/11/29 01:28:51;;;;;;;28.52;10.18;;;8.30;99.90;;;;;;5050242;28;20528;-69
2022/11/29 01:31:24;;;;;;;29.08;9.80;;;8.30;99.90;;;;;;5022056;28;20050;-69
2022/11/29 01:33:55;;;;;;;32.72;10.57;;;8.30;99.90;;;;;;5119269;28;20050;-69
2022/11/29 01:36:21;;;;;;;31.70;11.20;;;8.30;99.90;;;;;;5095493;28;20041;-68
2022/11/29 01:38:48;;;;;;;28.33;8.43;;;8.30;99.90;;;;;;5034989;28;20077;-69
2022/11/29 01:41:23;;;;;;;28.98;9.85;;;8.30;99.90;;;;;;5033567;28;20045;-69
2022/11/29 01:43:54;;;;;;;28.10;9.57;;;8.20;99.90;;;;;;5032331;28;20056;-69
2022/11/29 01:46:20;;;;;;;32.53;10.48;;;8.30;99.90;;;;;;5107659;28;20121;-69
2022/11/29 01:48:47;;;;;;;26.90;10.18;;;8.30;99.90;;;;;;5098873;28;20051;-68
2022/11/29 01:51:14;;;;;;;29.90;9.45;;;8.20;99.90;;;;;;5117586;28;20544;-68
2022/11/29 01:53:39;;;;;;;32.38;10.57;;;8.20;99.90;;;;;;5116062;28;20101;-68
2022/11/29 01:56:06;;;;;;;26.67;9.65;;;8.20;99.90;;;;;;5116465;28;20040;-68
2022/11/29 01:58:33;;;;;;;29.70;10.35;;;8.20;99.90;;;;;;5099988;28;20807;-67
2022/11/29 02:01:00;;;;;;;25.85;9.13;;;8.20;99.90;;;;;;5115852;28;20039;-68
2022/11/29 02:03:26;;;;;;;31.48;9.90;;;8.20;99.90;;;;;;5027143;28;20056;-68
2022/11/29 02:05:53;;;;;;;31.35;9.57;;;8.20;99.90;;;;;;4995879;28;20081;-68
2022/11/29 02:08:32;;;;;;;28.95;9.43;;;8.20;99.90;;;;;;5017114;28;20133;-68
2022/11/29 02:11:14;;;;;;;28.27;9.82;;;8.20;99.90;;;;;;5058627;28;20105;-68
2022/11/29 02:14:00;;;;;;;29.60;10.02;;;8.20;99.90;;;;;;5052772;28;20045;-68
2022/11/29 02:17:04;;;;;;;33.65;10.52;;;8.20;99.90;;;;;;5059572;28;20589;-68
2022/11/29 02:19:58;;;;;;;29.60;10.50;;;8.20;99.90;;;;;;5017910;28;20578;-68
2022/11/29 02:22:47;;;;;;;29.35;9.27;;;8.20;99.90;;;;;;5035363;28;20045;-68
2022/11/29 02:25:15;;;;;;;30.00;11.25;;;8.20;99.90;;;;;;5038355;28;20038;-68
2022/11/29 02:27:55;;;;;;;36.00;10.82;;;8.20;99.90;;;;;;5035040;28;20038;-68
2022/11/29 02:30:41;;;;;;;36.67;9.20;;;8.20;99.90;;;;;;4996858;28;20061;-68
2022/11/29 02:33:19;;;;;;;34.57;10.60;;;8.30;99.90;;;;;;5000420;28;20061;-68
2022/11/29 02:36:10;;;;;;;26.55;9.13;;;8.30;99.90;;;;;;4996504;28;20282;-69
2022/11/29 02:38:54;;;;;;;25.55;8.98;;;8.20;99.90;;;;;;4997132;28;20050;-69
2022/11/29 02:41:42;;;;;;;33.83;9.45;;;8.30;99.90;;;;;;5013311;28;20145;-68
2022/11/29 02:44:29;;;;;;;26.00;8.88;;;8.30;99.90;;;;;;5017427;28;20075;-68
2022/11/29 02:47:37;;;;;;;21.13;8.85;;;8.20;99.90;;;;;;5005102;28;20053;-69
2022/11/29 02:50:15;;;;;;;32.70;9.27;;;8.30;99.90;;;;;;4998067;28;20057;-69
2022/11/29 02:53:02;;;;;;;27.42;9.27;;;8.20;99.90;;;;;;5016179;28;20033;-69
2022/11/29 02:55:39;;;;;;;28.40;9.80;;;8.20;99.90;;;;;;5036708;28;20477;-69
2022/11/29 02:58:08;;;;;;;32.92;10.73;;;8.20;99.90;;;;;;5052427;28;20072;-68
2022/11/29 03:00:38;;;;;;;39.17;10.13;;;8.20;99.90;;;;;;5022632;28;20105;-68
2022/11/29 03:03:22;;;;;;;34.50;9.20;;;8.20;99.90;;;;;;5033592;28;20037;-68
2022/11/29 03:06:22;;;;;;;35.35;10.57;;;8.20;99.90;;;;;;5048815;28;20618;-68
2022/11/29 03:09:06;;;;;;;34.72;10.15;;;8.30;99.90;;;;;;5120669;28;20483;-69
2022/11/29 03:11:46;;;;;;;29.38;9.57;;;8.20;99.90;;;;;;5026811;28;20089;-68
2022/11/29 03:14:20;;;;;;;35.17;10.85;;;8.30;99.90;;;;;;5030003;28;20037;-68
2022/11/29 03:16:58;;;;;;;35.97;10.77;;;8.20;99.90;;;;;;5119383;28;20051;-68
2022/11/29 03:19:46;;;;;;;34.67;11.88;;;8.20;99.90;;;;;;5118642;28;20093;-68
2022/11/29 03:22:24;;;;;;;33.97;10.00;;;8.20;99.90;;;;;;5089802;28;20056;-68
2022/11/29 03:25:00;;;;;;;34.63;10.18;;;8.20;99.90;;;;;;5079433;28;20065;-67
2022/11/29 03:27:42;;;;;;;38.45;10.85;;;8.20;99.90;;;;;;5019719;28;20538;-68
2022/11/29 03:30:11;;;;;;;31.52;10.20;;;8.20;99.90;;;;;;5034934;28;20053;-67
2022/11/29 03:32:44;;;;;;;36.55;10.73;;;8.20;99.90;;;;;;5055922;28;20108;-67
2022/11/29 03:35:24;;;;;;;39.05;11.43;;;8.20;99.90;;;;;;5117555;28;20111;-68
2022/11/29 03:38:12;;;;;;;44.25;11.77;;;8.20;99.90;;;;;;5120875;28;20103;-68
2022/11/29 03:41:07;;;;;;;35.47;11.00;;;8.20;99.90;;;;;;5116714;28;20055;-67
2022/11/29 03:43:57;;;;;;;36.00;10.48;;;8.20;99.90;;;;;;5034038;28;20064;-67
2022/11/29 03:46:47;;;;;;;31.95;10.95;;;8.10;99.90;;;;;;5035514;28;20061;-68
2022/11/29 03:49:21;;;;;;;28.58;10.13;;;8.10;99.90;;;;;;5036363;28;20045;-68
2022/11/29 03:52:11;;;;;;;29.95;10.75;;;8.10;99.90;;;;;;5034102;28;20078;-68
2022/11/29 03:54:45;;;;;;;30.60;9.85;;;8.10;99.90;;;;;;5098325;28;20063;-68
2022/11/29 03:57:16;;;;;;;29.85;9.00;;;8.40;99.90;;;;;;5114579;28;20058;-69
2022/11/29 04:00:09;;;;;;;25.40;8.60;;;8.00;99.90;;;;;;5035058;28;20065;-68
2022/11/29 04:02:51;;;;;;;31.15;9.88;;;8.10;99.90;;;;;;5035241;28;20061;-68
2022/11/29 04:05:26;;;;;;;34.00;10.02;;;8.00;99.90;;;;;;5034670;28;20090;-68
2022/11/29 04:08:16;;;;;;;35.27;10.00;;;8.00;99.90;;;;;;5017246;28;20528;-68
2022/11/29 04:10:54;;;;;;;41.33;11.50;;;8.10;99.90;;;;;;5054099;28;20313;-67
2022/11/29 04:13:38;;;;;;;36.33;11.75;;;8.00;99.90;;;;;;5117337;28;20134;-68
2022/11/29 04:16:24;;;;;;;40.65;11.90;;;8.00;99.90;;;;;;4997170;28;20417;-68
2022/11/29 04:19:27;;;;;;;48.50;11.27;;;8.00;99.90;;;;;;4993918;28;20073;-68
2022/11/29 04:21:55;;;;;;;41.90;11.27;;;8.00;99.90;;;;;;4996169;28;20044;-68
2022/11/29 04:24:58;;;;;;;30.98;9.63;;;7.90;99.90;;;;;;5078997;28;20491;-68
2022/11/29 04:27:47;;;;;;;30.80;8.82;;;7.90;99.90;;;;;;5116078;28;20046;-68
2022/11/29 04:30:20;;;;;;;36.88;8.88;;;7.80;99.90;;;;;;5118435;28;20122;-68
2022/11/29 04:33:00;;;;;;;36.40;10.15;;;7.80;99.90;;;;;;5118092;28;20555;-68
2022/11/29 04:35:47;;;;;;;22.75;7.55;;;7.70;99.90;;;;;;5117732;28;20047;-68
2022/11/29 04:38:37;;;;;;;26.67;8.48;;;7.70;99.90;;;;;;5119892;28;20061;-68
2022/11/29 04:41:16;;;;;;;25.30;9.75;;;7.70;99.90;;;;;;5117555;28;20052;-68
2022/11/29 04:44:04;;;;;;;29.58;9.40;;;7.60;99.90;;;;;;5116510;28;20124;-68
2022/11/29 04:46:43;;;;;;;22.00;8.45;;;7.50;99.90;;;;;;5118534;28;20052;-68
2022/11/29 04:49:21;;;;;;;26.50;8.55;;;7.50;99.90;;;;;;5115948;28;20045;-68
2022/11/29 04:52:01;;;;;;;31.40;9.70;;;7.50;99.90;;;;;;5117350;28;20044;-68
2022/11/29 04:54:55;;;;;;;37.92;8.77;;;7.40;99.90;;;;;;5119347;28;20054;-68
2022/11/29 04:57:48;;;;;;;24.75;8.55;;;7.40;99.90;;;;;;5099188;28;20041;-68
2022/11/29 05:00:21;;;;;;;24.27;8.38;;;7.40;99.90;;;;;;5035055;28;20054;-69
2022/11/29 05:02:53;;;;;;;30.92;8.32;;;7.30;99.90;;;;;;5034215;28;20049;-68
2022/11/29 05:05:19;;;;;;;27.98;7.90;;;7.30;99.90;;;;;;5032464;28;20528;-68
2022/11/29 05:08:02;;;;;;;27.85;9.45;;;7.30;99.90;;;;;;5034590;28;20048;-67
2022/11/29 05:11:04;;;;;;;37.17;9.18;;;7.30;99.90;;;;;;5027179;28;20072;-68
2022/11/29 05:13:41;;;;;;;39.88;9.57;;;7.30;99.90;;;;;;5015718;28;20073;-68
2022/11/29 05:16:31;;;;;;;36.90;8.80;;;7.20;99.90;;;;;;4979274;28;20076;-68
2022/11/29 05:19:15;;;;;;;40.05;9.02;;;7.20;99.90;;;;;;4994567;28;20038;-68
2022/11/29 05:22:05;;;;;;;34.53;8.85;;;7.20;99.90;;;;;;4995722;28;20042;-68
2022/11/29 05:25:04;;;;;;;43.45;9.32;;;7.30;99.90;;;;;;5023688;28;20091;-68
2022/11/29 05:27:56;;;;;;;33.10;8.95;;;7.20;99.90;;;;;;5107317;28;20043;-68
2022/11/29 05:30:24;;;;;;;46.83;10.68;;;7.30;99.90;;;;;;5032865;28;20045;-69
2022/11/29 05:32:50;;;;;;;42.70;9.35;;;7.20;99.90;;;;;;5079745;28;20055;-68
2022/11/29 05:36:00;;;;;;;45.00;9.85;;;7.30;99.90;;;;;;5117103;28;20107;-69
2022/11/29 05:38:47;;;;;;;45.53;10.32;;;7.30;99.90;;;;;;5117481;28;20051;-68
2022/11/29 05:41:41;;;;;;;46.40;9.55;;;7.30;99.90;;;;;;5079984;28;20046;-68
2022/11/29 05:44:15;;;;;;;53.42;10.60;;;7.30;99.90;;;;;;5036818;28;20077;-69
2022/11/29 05:47:03;;;;;;;44.47;10.15;;;7.30;99.90;;;;;;5037642;28;20060;-69
2022/11/29 05:49:47;;;;;;;37.03;9.88;;;7.30;99.90;;;;;;5020080;28;20055;-68
2022/11/29 05:52:31;;;;;;;43.83;10.27;;;7.30;99.90;;;;;;5035589;28;20053;-69
2022/11/29 05:55:15;;;;;;;45.38;9.65;;;7.30;99.90;;;;;;5039161;28;20534;-69
2022/11/29 05:57:56;;;;;;;47.58;10.20;;;7.30;99.90;;;;;;5031484;28;20050;-69
2022/11/29 06:00:23;;;;;;;57.80;11.38;;;7.30;99.90;;;;;;5017534;28;20053;-69
2022/11/29 06:03:07;;;;;;;42.80;10.30;;;7.30;99.90;;;;;;5018550;28;20042;-68
2022/11/29 06:05:53;;;;;;;49.55;10.35;;;7.30;99.90;;;;;;5016209;28;20052;-68
2022/11/29 06:08:57;;;;;;;29.42;9.63;;;7.30;99.90;;;;;;5018815;28;20061;-69
2022/11/29 06:12:05;;;;;;;37.80;10.18;;;7.30;99.90;;;;;;5018231;28;20508;-69
2022/11/29 06:15:05;;;;;;;39.53;10.02;;;7.30;99.90;;;;;;5064051;28;20053;-69
2022/11/29 06:17:59;;;;;;;46.55;11.35;;;7.30;99.90;;;;;;5056035;28;20032;-69
2022/11/29 06:20:32;;;;;;;43.75;11.63;;;7.30;99.90;;;;;;5103821;28;20094;-68
2022/11/29 06:23:12;;;;;;;43.45;11.77;;;7.30;99.90;;;;;;5118685;28;20036;-69
2022/11/29 06:26:00;;;;;;;42.95;10.32;;;7.30;99.90;;;;;;5117471;28;20047;-68
2022/11/29 06:28:56;;;;;;;69.00;13.57;;;7.40;99.90;;;;;;5037705;28;20101;-69
2022/11/29 06:31:33;;;;;;;43.28;10.68;;;7.40;99.90;;;;;;5035159;28;20112;-69
2022/11/29 06:34:08;;;;;;;39.72;10.05;;;7.30;99.90;;;;;;5038070;28;20555;-68
2022/11/29 06:37:13;;;;;;;48.42;11.63;;;7.30;99.90;;;;;;5036951;28;20049;-69
2022/11/29 06:39:39;;;;;;;43.38;10.50;;;7.40;99.90;;;;;;5036366;28;20050;-68
2022/11/29 06:42:04;;;;;;;44.03;10.32;;;7.30;99.90;;;;;;5053909;28;20438;-68
2022/11/29 06:44:30;;;;;;;46.83;10.80;;;7.40;99.90;;;;;;5020359;28;20050;-68
2022/11/29 06:47:28;;;;;;;42.47;10.77;;;7.30;99.90;;;;;;5033331;28;20042;-68
2022/11/29 06:49:57;;;;;;;;;;;7.30;99.90;;;;;;5013710;28;20114;-68
2022/11/29 06:52:53;;;;;;;36.50;9.32;;;7.40;99.90;;;;;;5014494;28;19925;-68
2022/11/29 06:55:27;;;;;;;36.72;9.48;;;7.30;99.90;;;;;;5016720;28;20053;-68
2022/11/29 06:58:08;;;;;;;38.83;9.82;;;7.30;99.90;;;;;;5016817;28;20050;-68
2022/11/29 07:00:49;;;;;;;25.58;9.10;;;7.30;99.90;;;;;;5034932;28;20045;-69
2022/11/29 07:03:41;;;;;;;27.65;9.30;;;7.30;99.90;;;;;;5036457;28;20135;-67
2022/11/29 07:06:17;;;;;;;32.05;9.15;;;7.30;99.90;;;;;;5037791;28;20064;-68
2022/11/29 07:08:44;;;;;;;24.13;8.40;;;7.30;99.90;;;;;;5068596;28;20494;-68
2022/11/29 07:11:12;;;;;;;26.33;9.02;;;7.30;99.90;;;;;;5023988;28;20065;-68
2022/11/29 07:13:38;;;;;;;21.67;9.25;;;7.30;99.90;;;;;;5011505;28;20048;-68
2022/11/29 07:16:14;;;;;;;25.13;8.45;;;7.30;99.90;;;;;;5102794;28;20099;-68
2022/11/29 07:19:01;;;;;;;29.35;8.65;;;7.30;99.90;;;;;;5117669;28;20060;-68
2022/11/29 07:21:47;;;;;;;31.02;8.98;;;7.30;99.90;;;;;;5080275;28;20128;-68
2022/11/29 07:24:48;;;;;;;26.83;9.82;;;7.20;99.90;;;;;;5114089;28;20043;-68
2022/11/29 07:27:19;;;;;;;32.30;9.73;;;7.30;99.90;;;;;;5118713;28;20107;-68
2022/11/29 07:30:06;;;;;;;30.65;9.55;;;7.30;99.90;;;;;;5072096;28;20105;-69
2022/11/29 07:32:53;;;;;;;28.33;8.68;;;7.30;99.90;;;;;;5036361;28;20053;-68
2022/11/29 07:35:22;;;;;;;23.17;8.55;;;7.30;99.90;;;;;;5033282;28;20059;-68
2022/11/29 07:38:17;;;;;;;26.55;8.93;;;7.30;99.90;;;;;;5027498;28;20068;-68
2022/11/29 07:40:51;;;;;;;23.30;8.77;;;7.30;99.90;;;;;;5014177;28;20049;-68
2022/11/29 07:43:27;;;;;;;19.65;8.10;;;7.30;99.90;;;;;;5015701;28;20060;-68
2022/11/29 07:45:54;;;;;;;20.38;8.25;;;7.30;99.90;;;;;;5016899;28;20034;-68
2022/11/29 07:48:20;;;;;;;17.98;8.00;;;7.30;99.90;;;;;;4997821;28;20070;-68
2022/11/29 07:50:47;;;;;;;22.80;8.93;;;7.30;99.90;;;;;;5017373;28;20073;-67
2022/11/29 07:53:18;;;;;;;19.20;7.85;;;7.30;99.90;;;;;;5015335;28;20458;-68
2022/11/29 07:55:44;;;;;;;24.08;8.90;;;7.30;99.90;;;;;;5030593;28;20053;-68
2022/11/29 07:58:11;;;;;;;32.40;8.98;;;7.30;99.90;;;;;;5035632;28;20046;-67
2022/11/29 08:00:38;;;;;;;24.85;10.20;;;7.30;99.90;;;;;;5017338;28;20061;-67
2022/11/29 08:03:04;;;;;;;28.00;9.18;;;7.30;99.90;;;;;;5034731;28;20049;-67
2022/11/29 08:05:30;;;;;;;26.98;8.68;;;7.30;99.90;;;;;;5032562;28;20046;-67
2022/11/29 08:07:56;;;;;;;22.88;8.10;;;7.30;99.90;;;;;;5035494;28;20047;-67
2022/11/29 08:10:21;;;;;;;21.55;9.15;;;7.20;99.90;;;;;;5029622;28;20098;-68
2022/11/29 08:12:49;;;;;;;20.75;8.75;;;7.30;99.90;;;;;;5014635;28;20049;-68
2022/11/29 08:15:17;;;;;;;22.67;8.95;;;7.20;99.90;;;;;;5010797;28;20495;-67
2022/11/29 08:17:43;;;;;;;24.25;9.07;;;7.30;99.90;;;;;;5013050;28;20045;-68
2022/11/29 08:20:10;;;;;;;22.88;9.18;;;7.20;99.90;;;;;;5015439;28;20042;-68
2022/11/29 08:22:36;;;;;;;38.22;9.25;;;7.20;99.90;;;;;;5022921;28;20034;-68
2022/11/29 08:25:03;;;;;;;23.60;8.93;;;7.20;99.90;;;;;;5026806;28;20046;-68
2022/11/29 08:27:30;;;;;;;27.05;9.95;;;7.20;99.90;;;;;;4995221;28;20558;-67
2022/11/29 08:29:56;;;;;;;27.58;9.85;;;7.20;99.90;;;;;;5012889;28;20044;-67
2022/11/29 08:32:21;;;;;;;20.75;8.77;;;7.20;99.90;;;;;;5013441;28;20147;-67
2022/11/29 08:34:47;;;;;;;30.58;9.40;;;7.20;99.90;;;;;;5013821;28;20045;-67
2022/11/29 08:37:13;;;;;;;27.23;9.20;;;7.20;99.90;;;;;;4994489;28;20051;-67
2022/11/29 08:39:44;;;;;;;25.08;9.38;;;7.20;99.90;;;;;;4994474;28;20046;-67
2022/11/29 08:42:10;;;;;;;27.55;8.75;;;7.20;99.90;;;;;;4994752;28;20139;-68
2022/11/29 08:44:36;;;;;;;27.38;8.63;;;7.10;99.90;;;;;;4993052;28;20042;-68
2022/11/29 08:50:01;;;;;;;19.63;7.30;;;7.10;99.90;;;;;;4994829;28;20054;-68
2022/11/29 08:55:25;;;;;;;20.77;8.55;;;7.00;99.90;;;;;;4996662;28;20406;-68
2022/11/29 08:57:51;;;;;;;23.70;9.50;;;7.00;99.90;;;;;;4993711;28;20521;-68
2022/11/29 09:00:20;;;;;;;24.60;9.18;;;7.00;99.90;;;;;;4995408;28;20050;-68
2022/11/29 09:02:46;;;;;;;22.95;8.23;;;7.00;99.90;;;;;;4996127;28;20054;-67
2022/11/29 09:05:13;;;;;;;17.42;7.63;;;7.00;99.90;;;;;;4994240;28;20068;-68
2022/11/29 09:07:39;;;;;;;17.65;7.85;;;7.00;99.90;;;;;;4996354;28;20049;-67
2022/11/29 09:10:07;;;;;;;20.42;8.13;;;7.10;99.90;;;;;;5095947;28;20075;-67
2022/11/29 09:12:34;;;;;;;19.13;7.25;;;7.10;99.90;;;;;;5119054;28;20077;-67
2022/11/29 09:15:00;;;;;;;17.50;8.43;;;7.10;99.90;;;;;;5053932;28;20045;-66
2022/11/29 09:17:26;;;;;;;19.85;8.45;;;7.10;99.90;;;;;;5018274;28;20042;-67
2022/11/29 09:19:51;;;;;;;23.58;7.72;;;7.10;99.90;;;;;;5001089;28;20054;-67
2022/11/29 09:22:17;;;;;;;15.80;6.72;;;7.10;99.90;;;;;;5016191;28;20072;-67
2022/11/29 09:24:43;;;;;;;18.45;7.30;;;7.20;99.90;;;;;;5019233;28;20049;-68
2022/11/29 09:27:09;;;;;;;21.33;8.45;;;7.20;99.90;;;;;;5015633;28;20044;-67
2022/11/29 09:29:35;;;;;;;21.38;8.38;;;7.20;99.90;;;;;;5031458;28;20049;-67
2022/11/29 09:32:00;;;;;;;18.90;8.50;;;7.20;99.90;;;;;;5036263;28;20049;-67
2022/11/29 09:34:26;;;;;;;19.15;8.05;;;7.30;99.90;;;;;;5036766;28;20153;-68
2022/11/29 09:36:52;;;;;;;16.20;7.68;;;7.30;99.90;;;;;;5037906;28;20075;-68
2022/11/29 09:39:18;;;;;;;19.30;7.38;;;7.30;99.90;;;;;;5036045;28;20041;-67
2022/11/29 09:42:32;;;;;;;19.95;8.68;;;7.30;99.90;;;;;;5038786;28;20041;-67
2022/11/29 09:45:03;;;;;;;16.33;7.93;;;7.30;99.90;;;;;;5064781;28;20098;-67
2022/11/29 09:47:38;;;;;;;17.92;7.93;;;7.30;99.90;;;;;;5106372;28;20135;-67
2022/11/29 09:50:41;;;;;;;18.15;7.65;;;7.30;99.90;;;;;;4997616;28;20092;-67
2022/11/29 09:53:22;;;;;;;17.80;8.07;;;7.40;99.90;;;;;;5017107;28;20054;-67
2022/11/29 09:56:36;;;;;;;16.20;7.70;;;7.40;99.90;;;;;;5036606;28;20165;-67
2022/11/29 09:59:11;;;;;;;18.33;7.97;;;7.40;99.90;;;;;;5028987;28;20056;-67
2022/11/29 10:01:45;;;;;;;18.30;8.25;;;7.50;99.90;;;;;;5075950;28;20773;-67
2022/11/29 10:04:29;;;;;;;15.20;8.05;;;7.50;99.90;;;;;;5122085;28;20036;-67
2022/11/29 10:07:05;;;;;;;15.45;7.07;;;7.50;99.90;;;;;;5121384;28;20108;-68
2022/11/29 10:10:03;;;;;;;13.40;7.30;;;7.60;99.90;;;;;;5120425;28;20578;-67
2022/11/29 10:12:51;;;;;;;15.57;6.97;;;7.60;99.90;;;;;;5008620;28;20050;-68
2022/11/29 10:15:26;;;;;;;17.23;7.28;;;7.70;99.90;;;;;;5025165;28;20049;-67
2022/11/29 10:17:57;;;;;;;16.52;7.55;;;7.70;99.90;;;;;;5047692;28;20099;-67
2022/11/29 10:20:26;;;;;;;18.45;7.90;;;7.70;99.90;;;;;;5120854;28;20048;-67
2022/11/29 10:23:01;;;;;;;19.27;8.02;;;7.70;99.90;;;;;;5119924;28;20039;-67
2022/11/29 10:25:49;;;;;;;19.83;7.50;;;7.80;99.90;;;;;;5120658;28;20555;-67
2022/11/29 10:28:25;;;;;;;18.48;7.05;;;7.80;99.90;;;;;;5120727;28;20304;-67
2022/11/29 10:30:54;;;;;;;;;;;7.80;99.90;;;;;;5120544;28;20047;-67
2022/11/29 10:33:25;;;;;;;14.90;7.45;;;7.80;99.90;;;;;;5121921;28;19930;-68
2022/11/29 10:35:56;;;;;;;16.60;6.85;;;7.80;99.90;;;;;;5119630;28;20040;-67
2022/11/29 10:38:23;;;;;;;15.95;7.85;;;7.90;99.90;;;;;;5120386;28;20050;-68
2022/11/29 10:40:57;;;;;;;19.92;7.82;;;7.90;99.90;;;;;;5073476;28;20049;-67
2022/11/29 10:43:25;;;;;;;22.50;8.05;;;8.00;99.90;;;;;;5028844;28;20038;-67
2022/11/29 10:45:54;;;;;;;16.38;7.78;;;8.00;99.90;;;;;;5013891;28;20042;-68
2022/11/29 10:48:23;;;;;;;17.08;7.05;;;8.00;99.90;;;;;;5022003;28;20467;-68
2022/11/29 10:50:50;;;;;;;15.68;7.55;;;8.00;99.90;;;;;;5022113;28;20061;-68
2022/11/29 10:53:30;;;;;;;15.55;7.40;;;8.10;99.90;;;;;;5003144;28;20051;-68
2022/11/29 10:56:15;;;;;;;13.77;7.13;;;8.10;99.90;;;;;;5005026;28;20082;-68
2022/11/29 10:59:02;;;;;;;12.23;6.13;;;8.10;99.90;;;;;;5004805;28;20050;-68
2022/11/29 11:01:28;;;;;;;;;;;8.10;99.90;;;;;;5004730;28;20054;-68
2022/11/29 11:03:56;;;;;;;13.30;6.10;;;8.10;99.90;;;;;;5006656;28;19922;-68
2022/11/29 11:06:42;;;;;;;16.10;6.00;;;8.10;99.90;;;;;;5005131;28;20114;-68
2022/11/29 11:09:26;;;;;;;12.18;5.53;;;8.20;99.90;;;;;;5005819;28;20043;-68
2022/11/29 11:11:57;;;;;;;12.48;5.25;;;8.20;99.90;;;;;;5025097;28;20070;-69
2022/11/29 11:14:29;;;;;;;11.60;6.18;;;8.20;99.90;;;;;;5006112;28;20173;-68
2022/11/29 11:17:12;;;;;;;13.50;6.05;;;8.20;99.90;;;;;;5003320;28;20066;-69
2022/11/29 11:19:38;;;;;;;11.80;5.65;;;8.20;99.90;;;;;;5003861;28;20083;-68
2022/11/29 11:22:03;;;;;;;10.80;5.72;;;8.20;99.90;;;;;;5003799;28;20046;-68
2022/11/29 11:24:36;;;;;;;10.00;5.20;;;8.20;99.90;;;;;;4991821;28;20046;-67
2022/11/29 11:27:02;;;;;;;10.55;5.25;;;8.20;99.90;;;;;;5005276;28;20060;-68
2022/11/29 11:29:39;;;;;;;12.25;5.25;;;8.20;99.90;;;;;;5019046;28;20105;-68
2022/11/29 11:32:15;;;;;;;11.02;4.90;;;8.20;99.90;;;;;;5008921;28;20049;-68
2022/11/29 11:34:53;;;;;;;11.83;5.03;;;8.20;99.90;;;;;;5004629;28;20070;-68
2022/11/29 11:37:30;;;;;;;10.90;4.82;;;8.20;99.90;;;;;;5009347;28;20820;-69
2022/11/29 11:40:17;;;;;;;13.38;5.22;;;8.20;99.90;;;;;;5000519;28;20057;-68
2022/11/29 11:42:43;;;;;;;10.02;5.15;;;8.30;99.90;;;;;;4989229;28;20079;-68
2022/11/29 11:45:09;;;;;;;10.65;5.13;;;8.20;99.90;;;;;;5001057;28;20146;-68
2022/11/29 11:47:41;;;;;;;10.23;4.88;;;8.20;99.90;;;;;;5035651;28;20088;-68
2022/11/29 11:50:13;;;;;;;11.10;5.10;;;8.20;99.90;;;;;;5019078;28;20098;-68
2022/11/29 11:52:44;;;;;;;11.93;4.72;;;8.20;99.90;;;;;;5015375;28;20041;-68
2022/11/29 11:55:22;;;;;;;13.48;5.43;;;8.20;99.90;;;;;;5017312;28;20058;-68
2022/11/29 11:58:12;;;;;;;8.93;5.00;;;8.20;99.90;;;;;;5045708;28;20053;-67
2022/11/29 12:01:13;;;;;;;9.32;4.55;;;8.20;99.90;;;;;;5002850;28;20105;-68
2022/11/29 12:03:50;;;;;;;10.02;5.10;;;8.20;99.90;;;;;;5036697;28;20046;-68
2022/11/29 12:06:28;;;;;;;10.48;4.70;;;8.20;99.90;;;;;;5061629;28;20040;-68
2022/11/29 12:09:18;;;;;;;10.57;4.82;;;8.20;99.90;;;;;;5117495;28;20043;-68
2022/11/29 12:11:55;;;;;;;10.55;5.22;;;8.20;99.90;;;;;;5090969;28;20067;-68
2022/11/29 12:14:48;;;;;;;12.15;5.32;;;8.20;99.90;;;;;;5010946;28;20034;-68
2022/11/29 12:17:27;;;;;;;11.07;5.47;;;8.20;99.90;;;;;;5005203;28;20049;-67
2022/11/29 12:20:03;;;;;;;10.82;5.30;;;8.20;99.90;;;;;;5004086;28;20051;-68
2022/11/29 12:22:37;;;;;;;11.70;4.78;;;8.30;99.90;;;;;;5003600;28;20394;-68
2022/11/29 12:25:09;;;;;;;12.65;5.13;;;8.30;99.90;;;;;;5004848;28;20038;-68
2022/11/29 12:27:35;;;;;;;11.88;6.18;;;8.30;99.90;;;;;;5003290;28;20076;-68
2022/11/29 12:30:01;;;;;;;9.77;4.70;;;8.30;99.90;;;;;;4994376;28;20049;-67
2022/11/29 12:32:55;;;;;;;10.85;4.63;;;8.20;99.90;;;;;;4992864;28;20061;-68
2022/11/29 12:35:56;;;;;;;11.48;5.20;;;8.20;99.90;;;;;;5006039;28;20042;-68
2022/11/29 12:38:31;;;;;;;9.65;5.30;;;8.30;99.90;;;;;;5025353;28;20392;-67
2022/11/29 12:41:18;;;;;;;9.57;4.67;;;8.20;99.90;;;;;;5004515;28;20054;-68
2022/11/29 12:43:52;;;;;;;10.07;4.68;;;8.30;99.90;;;;;;5003517;28;20043;-67
2022/11/29 12:46:23;;;;;;;13.32;5.22;;;8.20;99.90;;;;;;5008328;28;20054;-68
2022/11/29 12:49:02;;;;;;;13.57;4.90;;;8.20;99.90;;;;;;5002518;28;20058;-67
2022/11/29 12:52:02;;;;;;;9.70;4.55;;;8.30;99.90;;;;;;5002373;28;20049;-67
2022/11/29 12:54:50;;;;;;;9.48;4.75;;;8.30;99.90;;;;;;5005418;28;20077;-68
2022/11/29 12:57:50;;;;;;;13.90;4.90;;;8.30;99.90;;;;;;5010526;28;20050;-67
2022/11/29 13:00:18;;;;;;;11.80;4.97;;;8.30;99.90;;;;;;5008207;28;20045;-67
2022/11/29 13:03:00;;;;;;;10.35;5.10;;;8.30;99.90;;;;;;5024154;28;20318;-67
2022/11/29 13:05:35;;;;;;;12.45;5.80;;;8.30;99.90;;;;;;5026103;28;20318;-67
2022/11/29 13:08:13;;;;;;;12.55;5.50;;;8.30;99.90;;;;;;5026565;28;20587;-67
2022/11/29 13:11:10;;;;;;;14.02;5.28;;;8.40;99.90;;;;;;5034148;28;20053;-68
2022/11/29 13:14:03;;;;;;;16.65;6.47;;;8.40;99.90;;;;;;5024133;28;20137;-67
2022/11/29 13:16:31;;;;;;;12.25;5.40;;;8.40;99.90;;;;;;5024776;28;20053;-67
2022/11/29 13:19:00;;;;;;;13.20;5.95;;;8.40;99.90;;;;;;5017810;28;20049;-68
2022/11/29 13:21:54;;;;;;;12.77;5.55;;;8.40;99.90;;;;;;5022653;28;20050;-68
2022/11/29 13:24:40;;;;;;;13.80;5.90;;;8.50;99.90;;;;;;5024851;28;20041;-67
2022/11/29 13:27:10;;;;;;;13.15;5.55;;;8.50;99.90;;;;;;5022911;28;20068;-68
2022/11/29 13:29:36;;;;;;;13.43;5.95;;;8.50;99.90;;;;;;5028979;28;20074;-67
2022/11/29 13:32:05;;;;;;;18.98;6.25;;;8.50;99.90;;;;;;5023822;28;20105;-67
2022/11/29 13:34:48;;;;;;;14.40;6.10;;;8.50;99.90;;;;;;5024350;28;20094;-67
2022/11/29 13:37:18;;;;;;;13.82;6.05;;;8.60;99.90;;;;;;5023793;28;20038;-67
2022/11/29 13:39:58;;;;;;;13.68;5.72;;;8.60;99.90;;;;;;5020045;28;20038;-67